createdAt,value
2024-04-16T00:00:54.011Z,116.62
2024-04-16T00:01:54.905Z,114.87
2024-04-16T00:02:54.031Z,112.66
2024-04-16T00:03:54.018Z,113.87
2024-04-16T00:04:54.211Z,110.96
2024-04-16T00:05:54.092Z,112.00
2024-04-16T00:06:54.219Z,113.43
2024-04-16T00:07:54.215Z,112.55
2024-04-16T00:08:54.493Z,113.65
2024-04-16T00:09:54.315Z,112.50
2024-04-16T00:10:54.473Z,111.36
2024-04-16T00:11:54.428Z,113.03
2024-04-16T00:12:54.456Z,113.70
2024-04-16T00:13:55.418Z,112.72
2024-04-16T00:14:54.554Z,112.60
2024-04-16T00:15:54.622Z,113.25
2024-04-16T00:16:54.795Z,114.79
2024-04-16T00:17:54.764Z,112.54
2024-04-16T00:18:54.811Z,111.72
2024-04-16T00:19:55.258Z,111.17
2024-04-16T00:20:54.882Z,113.22
2024-04-16T00:21:55.163Z,113.57
2024-04-16T00:22:55.041Z,112.13
2024-04-16T00:23:55.896Z,111.40
2024-04-16T00:24:55.918Z,114.33
2024-04-16T00:25:55.141Z,112.02
2024-04-16T00:26:55.334Z,111.82
2024-04-16T00:27:55.296Z,112.14
2024-04-16T00:28:55.280Z,111.94
2024-04-16T00:29:55.418Z,110.99
2024-04-16T00:30:55.406Z,111.88
2024-04-16T00:31:55.486Z,112.54
2024-04-16T00:32:55.515Z,109.19
2024-04-16T00:33:55.694Z,108.35
2024-04-16T00:34:55.585Z,109.89
2024-04-16T00:35:55.634Z,110.00
2024-04-16T00:36:55.679Z,111.25
2024-04-16T00:37:55.765Z,111.75
2024-04-16T00:38:55.841Z,109.86
2024-04-16T00:39:55.919Z,112.29
2024-04-16T00:40:55.956Z,110.30
2024-04-16T00:41:55.964Z,111.40
2024-04-16T00:42:55.981Z,111.98
2024-04-16T00:43:56.035Z,112.15
2024-04-16T00:44:56.117Z,112.13
2024-04-16T00:45:56.141Z,109.86
2024-04-16T00:46:56.258Z,111.83
2024-04-16T00:47:56.303Z,110.53
2024-04-16T00:48:56.309Z,110.42
2024-04-16T00:49:56.898Z,110.57
2024-04-16T00:50:56.425Z,108.43
2024-04-16T00:51:56.465Z,109.87
2024-04-16T00:52:56.502Z,107.69
2024-04-16T00:53:56.626Z,109.53
2024-04-16T00:54:56.647Z,110.30
2024-04-16T00:55:56.699Z,109.73
2024-04-16T00:56:56.768Z,109.47
2024-04-16T00:57:56.835Z,110.29
2024-04-16T00:58:56.880Z,109.98
2024-04-16T00:59:56.913Z,109.63
2024-04-16T01:00:57.024Z,109.40
2024-04-16T01:01:57.031Z,108.29
2024-04-16T01:02:57.130Z,109.23
2024-04-16T01:03:57.178Z,110.03
2024-04-16T01:04:57.225Z,110.92
2024-04-16T01:05:57.289Z,108.09
2024-04-16T01:06:57.355Z,109.65
2024-04-16T01:07:57.398Z,110.25
2024-04-16T01:08:57.475Z,107.30
2024-04-16T01:09:57.517Z,109.09
2024-04-16T01:10:57.584Z,107.89
2024-04-16T01:11:57.629Z,108.00
2024-04-16T01:12:57.665Z,108.80
2024-04-16T01:13:57.752Z,109.74
2024-04-16T01:14:57.789Z,107.68
2024-04-16T01:15:57.896Z,110.25
2024-04-16T01:16:57.907Z,109.31
2024-04-16T01:17:58.100Z,108.10
2024-04-16T01:18:58.233Z,106.50
2024-04-16T01:19:58.103Z,110.27
2024-04-16T01:20:58.166Z,108.43
2024-04-16T01:21:58.301Z,106.62
2024-04-16T01:22:58.276Z,106.40
2024-04-16T01:23:58.405Z,106.68
2024-04-16T01:24:58.535Z,104.17
2024-04-16T01:25:58.494Z,107.15
2024-04-16T01:26:58.586Z,107.06
2024-04-16T01:27:58.660Z,106.33
2024-04-16T01:28:58.665Z,105.95
2024-04-16T01:29:58.709Z,107.31
2024-04-16T01:30:58.770Z,108.06
2024-04-16T01:31:58.840Z,105.20
2024-04-16T01:32:58.914Z,106.28
2024-04-16T01:33:58.975Z,102.28
2024-04-16T01:34:59.064Z,105.75
2024-04-16T01:35:59.072Z,105.75
2024-04-16T01:36:59.117Z,103.42
2024-04-16T01:37:59.157Z,101.71
2024-04-16T01:38:59.165Z,100.69
2024-04-16T01:39:59.311Z,101.62
2024-04-16T01:40:59.328Z,100.88
2024-04-16T01:41:59.369Z,101.89
2024-04-16T01:42:59.623Z,96.27
2024-04-16T01:43:59.494Z,98.90
2024-04-16T01:44:59.548Z,96.55
2024-04-16T01:45:59.620Z,96.35
2024-04-16T01:46:59.719Z,98.49
2024-04-16T01:47:59.892Z,97.93
2024-04-16T01:49:02.043Z,97.58
2024-04-16T01:49:59.797Z,99.62
2024-04-16T01:50:59.802Z,98.06
2024-04-16T01:51:59.815Z,97.17
2024-04-16T01:52:59.801Z,97.82
2024-04-16T01:53:59.798Z,94.18
2024-04-16T01:54:59.819Z,95.52
2024-04-16T01:55:59.789Z,96.02
2024-04-16T01:56:59.778Z,92.74
2024-04-16T01:57:59.781Z,92.31
2024-04-16T01:58:59.780Z,91.28
2024-04-16T01:59:59.795Z,91.03
2024-04-16T02:00:59.961Z,92.95
2024-04-16T02:01:59.783Z,92.49
2024-04-16T02:02:59.834Z,93.19
2024-04-16T02:03:59.859Z,92.54
2024-04-16T02:04:59.860Z,92.50
2024-04-16T02:05:59.771Z,92.61
2024-04-16T02:06:59.797Z,92.60
2024-04-16T02:07:59.780Z,92.38
2024-04-16T02:08:59.831Z,92.10
2024-04-16T02:09:59.819Z,94.18
2024-04-16T02:10:59.787Z,94.00
2024-04-16T02:11:59.890Z,93.29
2024-04-16T02:12:59.802Z,94.27
2024-04-16T02:13:59.833Z,92.02
2024-04-16T02:14:59.798Z,93.55
2024-04-16T02:15:59.927Z,95.56
2024-04-16T02:16:59.853Z,94.06
2024-04-16T02:17:59.876Z,94.69
2024-04-16T02:18:59.833Z,94.64
2024-04-16T02:19:59.792Z,94.54
2024-04-16T02:20:59.820Z,94.38
2024-04-16T02:22:02.909Z,97.41
2024-04-16T02:22:59.821Z,97.21
2024-04-16T02:23:59.828Z,96.48
2024-04-16T02:24:59.815Z,97.20
2024-04-16T02:25:59.806Z,97.06
2024-04-16T02:26:59.803Z,98.11
2024-04-16T02:27:59.844Z,98.97
2024-04-16T02:28:59.812Z,96.82
2024-04-16T02:29:59.825Z,97.40
2024-04-16T02:30:59.874Z,97.55
2024-04-16T02:31:59.946Z,99.11
2024-04-16T02:32:59.879Z,96.49
2024-04-16T02:33:59.886Z,98.18
2024-04-16T02:34:59.835Z,98.52
2024-04-16T02:35:59.799Z,96.40
2024-04-16T02:36:59.922Z,97.82
2024-04-16T02:37:59.827Z,99.18
2024-04-16T02:38:59.823Z,97.23
2024-04-16T02:39:59.872Z,98.41
2024-04-16T02:40:59.812Z,98.54
2024-04-16T02:41:59.893Z,96.59
2024-04-16T02:42:59.828Z,97.28
2024-04-16T02:43:59.871Z,99.98
2024-04-16T02:44:59.833Z,101.22
2024-04-16T02:45:59.864Z,100.96
2024-04-16T02:47:02.202Z,99.01
2024-04-16T02:48:00.066Z,99.10
2024-04-16T02:48:59.863Z,99.49
2024-04-16T02:49:59.825Z,100.04
2024-04-16T02:50:59.849Z,100.09
2024-04-16T02:51:59.951Z,101.73
2024-04-16T02:52:59.825Z,101.94
2024-04-16T02:53:59.824Z,100.65
2024-04-16T02:54:59.877Z,100.76
2024-04-16T02:55:59.863Z,100.91
2024-04-16T02:56:59.854Z,101.25
2024-04-16T02:57:59.912Z,103.38
2024-04-16T02:58:59.822Z,101.07
2024-04-16T02:59:59.831Z,101.40
2024-04-16T03:01:00.011Z,101.54
2024-04-16T03:01:59.922Z,103.06
2024-04-16T03:02:59.913Z,102.06
2024-04-16T03:03:59.923Z,103.39
2024-04-16T03:04:59.927Z,101.91
2024-04-16T03:05:59.901Z,102.85
2024-04-16T03:06:59.909Z,101.01
2024-04-16T03:07:59.886Z,101.96
2024-04-16T03:08:59.854Z,100.71
2024-04-16T03:09:59.864Z,101.76
2024-04-16T03:10:59.947Z,102.62
2024-04-16T03:12:00.049Z,102.83
2024-04-16T03:13:00.076Z,101.84
2024-04-16T03:14:00.102Z,102.51
2024-04-16T03:15:00.201Z,100.53
2024-04-16T03:16:00.368Z,102.36
2024-04-16T03:17:00.339Z,103.77
2024-04-16T03:18:00.408Z,104.59
2024-04-16T03:19:00.551Z,103.54
2024-04-16T03:20:00.513Z,104.33
2024-04-16T03:21:00.658Z,103.06
2024-04-16T03:22:00.660Z,99.85
2024-04-16T03:23:00.691Z,103.81
2024-04-16T03:24:00.868Z,106.64
2024-04-16T03:25:00.964Z,102.23
2024-04-16T03:26:00.919Z,102.29
2024-04-16T03:27:00.990Z,101.73
2024-04-16T03:28:01.088Z,102.69
2024-04-16T03:29:01.155Z,100.97
2024-04-16T03:30:01.184Z,102.47
2024-04-16T03:31:01.213Z,103.67
2024-04-16T03:32:01.315Z,101.13
2024-04-16T03:33:01.423Z,103.74
2024-04-16T03:34:01.442Z,101.79
2024-04-16T03:35:01.501Z,102.89
2024-04-16T03:36:01.554Z,102.79
2024-04-16T03:37:01.634Z,103.46
2024-04-16T03:38:01.667Z,103.62
2024-04-16T03:39:01.732Z,101.96
2024-04-16T03:40:01.886Z,102.73
2024-04-16T03:41:02.027Z,103.16
2024-04-16T03:42:01.947Z,102.45
2024-04-16T03:43:02.043Z,102.48
2024-04-16T03:44:02.048Z,105.09
2024-04-16T03:45:02.133Z,103.27
2024-04-16T03:46:02.233Z,101.49
2024-04-16T03:47:02.350Z,103.33
2024-04-16T03:48:02.452Z,101.96
2024-04-16T03:49:02.488Z,104.28
2024-04-16T03:50:02.489Z,103.11
2024-04-16T03:51:02.524Z,100.78
2024-04-16T03:52:02.687Z,100.55
2024-04-16T03:53:02.696Z,102.71
2024-04-16T03:54:02.774Z,104.30
2024-04-16T03:55:02.924Z,101.08
2024-04-16T03:56:02.894Z,104.08
2024-04-16T03:57:02.999Z,104.35
2024-04-16T03:58:03.043Z,103.43
2024-04-16T03:59:03.121Z,104.74
2024-04-16T04:00:03.145Z,102.12
2024-04-16T04:01:03.301Z,104.43
2024-04-16T04:02:06.201Z,102.66
2024-04-16T04:03:03.373Z,102.50
2024-04-16T04:04:03.339Z,104.94
2024-04-16T04:05:03.382Z,102.22
2024-04-16T04:06:03.319Z,100.34
2024-04-16T04:07:03.378Z,97.40
2024-04-16T04:08:03.311Z,94.29
2024-04-16T04:09:03.291Z,87.27
2024-04-16T04:10:03.335Z,83.35
2024-04-16T04:11:03.389Z,80.18
2024-04-16T04:12:03.311Z,73.91
2024-04-16T04:13:03.332Z,67.51
2024-04-16T04:14:03.308Z,61.20
2024-04-16T04:15:03.318Z,56.73
2024-04-16T04:16:03.357Z,52.98
2024-04-16T04:17:03.340Z,50.00
2024-04-16T04:18:03.486Z,49.58
2024-04-16T04:19:03.364Z,50.16
2024-04-16T04:20:03.305Z,50.79
2024-04-16T04:21:03.329Z,51.83
2024-04-16T04:22:03.355Z,50.63
2024-04-16T04:23:03.358Z,50.00
2024-04-16T04:24:07.193Z,50.00
2024-04-16T04:25:04.339Z,50.00
2024-04-16T04:26:03.310Z,46.89
2024-04-16T04:27:03.337Z,45.18
2024-04-16T04:28:03.382Z,38.63
2024-04-16T04:29:03.381Z,36.90
2024-04-16T04:30:03.320Z,50.00
2024-04-16T04:31:03.377Z,50.00
2024-04-16T04:32:03.403Z,54.07
2024-04-16T04:33:03.369Z,53.62
2024-04-16T04:34:03.366Z,51.75
2024-04-16T04:35:03.354Z,52.37
2024-04-16T04:36:03.454Z,52.04
2024-04-16T04:37:03.497Z,53.08
2024-04-16T04:38:10.786Z,50.00
2024-04-16T04:39:10.833Z,50.00
2024-04-16T04:40:10.805Z,50.00
2024-04-16T04:41:10.746Z,50.00
2024-04-16T04:42:10.795Z,50.00
2024-04-16T04:43:10.761Z,50.00
2024-04-16T04:44:10.737Z,51.76
2024-04-16T04:45:10.884Z,53.00
2024-04-16T04:46:10.872Z,53.22
2024-04-16T04:47:10.777Z,54.75
2024-04-16T04:48:10.775Z,55.89
2024-04-16T04:49:10.764Z,58.79
2024-04-16T04:50:10.764Z,57.58
2024-04-16T04:51:10.748Z,58.34
2024-04-16T04:52:10.805Z,60.88
2024-04-16T04:53:10.769Z,60.78
2024-04-16T04:54:10.752Z,61.57
2024-04-16T04:55:10.803Z,62.79
2024-04-16T04:56:10.750Z,64.71
2024-04-16T04:57:10.882Z,62.99
2024-04-16T04:58:10.806Z,63.89
2024-04-16T04:59:10.794Z,65.61
2024-04-16T05:00:10.816Z,66.39
2024-04-16T05:01:10.793Z,67.81
2024-04-16T05:02:10.902Z,68.61
2024-04-16T05:03:10.758Z,70.47
2024-04-16T05:04:10.847Z,71.33
2024-04-16T05:05:10.775Z,71.41
2024-04-16T05:06:10.749Z,71.88
2024-04-16T05:07:10.872Z,72.32
2024-04-16T05:08:10.842Z,70.44
2024-04-16T05:09:10.877Z,72.82
2024-04-16T05:10:11.046Z,73.43
2024-04-16T05:11:11.498Z,73.01
2024-04-16T05:12:12.530Z,73.42
2024-04-16T05:13:11.082Z,75.44
2024-04-16T05:14:11.141Z,73.74
2024-04-16T05:15:11.304Z,73.33
2024-04-16T05:16:11.251Z,74.08
2024-04-16T05:17:11.287Z,71.74
2024-04-16T05:18:11.452Z,72.55
2024-04-16T05:19:11.385Z,73.07
2024-04-16T05:20:11.397Z,71.54
2024-04-16T05:21:12.400Z,72.37
2024-04-16T05:22:11.585Z,72.29
2024-04-16T05:23:11.557Z,69.17
2024-04-16T05:24:11.597Z,67.02
2024-04-16T05:25:11.651Z,65.44
2024-04-16T05:26:11.895Z,63.22
2024-04-16T05:27:11.654Z,60.81
2024-04-16T05:28:11.652Z,59.44
2024-04-16T05:29:11.659Z,50.07
2024-04-16T05:30:11.713Z,50.00
2024-04-16T05:31:11.738Z,50.00
2024-04-16T05:32:11.788Z,52.24
2024-04-16T05:33:11.897Z,50.00
2024-04-16T05:34:11.868Z,50.00
2024-04-16T05:35:11.851Z,50.11
2024-04-16T05:36:11.954Z,50.00
2024-04-16T05:37:11.998Z,51.42
2024-04-16T05:38:12.040Z,52.15
2024-04-16T05:39:12.079Z,52.49
2024-04-16T05:40:12.295Z,50.60
2024-04-16T05:41:12.295Z,52.07
2024-04-16T05:42:12.260Z,55.09
2024-04-16T05:43:12.415Z,54.34
2024-04-16T05:44:12.413Z,52.27
2024-04-16T05:45:13.378Z,49.60
2024-04-16T05:46:12.562Z,52.68
2024-04-16T05:47:12.946Z,57.32
2024-04-16T05:48:12.737Z,59.68
2024-04-16T05:49:12.905Z,64.15
2024-04-16T05:50:12.759Z,57.02
2024-04-16T05:51:12.802Z,59.17
2024-04-16T05:52:12.888Z,57.89
2024-04-16T05:53:12.915Z,62.20
2024-04-16T05:54:14.912Z,72.49
2024-04-16T05:55:13.037Z,77.09
2024-04-16T05:56:12.962Z,77.18
2024-04-16T05:57:12.999Z,81.83
2024-04-16T05:58:15.524Z,86.11
2024-04-16T05:59:14.270Z,87.02
2024-04-16T06:00:13.258Z,92.78
2024-04-16T06:01:13.368Z,95.75
2024-04-16T06:02:13.372Z,102.40
2024-04-16T06:03:13.299Z,104.28
2024-04-16T06:04:13.598Z,109.70
2024-04-16T06:05:13.450Z,114.52
2024-04-16T06:06:13.396Z,116.00
2024-04-16T06:07:13.482Z,112.22
2024-04-16T06:08:13.403Z,110.35
2024-04-16T06:09:13.398Z,107.72
2024-04-16T06:10:13.524Z,108.72
2024-04-16T06:11:13.729Z,112.66
2024-04-16T06:12:13.952Z,113.88
2024-04-16T06:13:13.435Z,117.82
2024-04-16T06:14:13.474Z,119.30
2024-04-16T06:15:13.584Z,118.05
2024-04-16T06:16:13.529Z,116.39
2024-04-16T06:17:13.429Z,119.45
2024-04-16T06:18:13.903Z,120.63
2024-04-16T06:19:13.494Z,119.92
2024-04-16T06:20:13.494Z,122.59
2024-04-16T06:21:13.506Z,121.54
2024-04-16T06:22:13.543Z,115.53
2024-04-16T06:23:13.916Z,102.32
2024-04-16T06:24:13.543Z,94.05
2024-04-16T06:25:14.070Z,86.70
2024-04-16T06:26:13.526Z,82.36
2024-04-16T06:27:13.906Z,83.49
2024-04-16T06:28:13.779Z,89.31
2024-04-16T06:29:13.570Z,92.59
2024-04-16T06:30:13.580Z,96.22
2024-04-16T06:31:16.649Z,100.33
2024-04-16T06:32:13.764Z,103.54
2024-04-16T06:33:14.427Z,99.75
2024-04-16T06:34:13.588Z,102.14
2024-04-16T06:35:13.596Z,95.47
2024-04-16T06:36:13.591Z,97.15
2024-04-16T06:37:13.626Z,98.31
2024-04-16T06:38:13.937Z,95.94
2024-04-16T06:39:13.702Z,93.17
2024-04-16T06:40:13.668Z,94.30
2024-04-16T06:41:13.749Z,91.14
2024-04-16T06:42:16.202Z,86.70
2024-04-16T06:43:14.019Z,86.83
2024-04-16T06:44:13.690Z,88.42
2024-04-16T06:45:13.605Z,91.58
2024-04-16T06:46:13.642Z,97.20
2024-04-16T06:47:13.639Z,107.89
2024-04-16T06:48:14.041Z,108.32
2024-04-16T06:49:18.405Z,111.92
2024-04-16T06:50:14.644Z,112.04
2024-04-16T06:51:13.700Z,113.13
2024-04-16T06:52:13.744Z,114.89
2024-04-16T06:53:13.955Z,121.20
2024-04-16T06:54:14.438Z,128.43
2024-04-16T06:55:13.646Z,131.65
2024-04-16T06:56:13.631Z,134.86
2024-04-16T06:57:13.615Z,136.37
2024-04-16T06:58:14.007Z,141.01
2024-04-16T06:59:13.920Z,144.30
2024-04-16T07:00:13.806Z,144.04
2024-04-16T07:01:13.906Z,144.18
2024-04-16T07:02:13.846Z,145.66
2024-04-16T07:03:15.455Z,148.82
2024-04-16T07:04:13.960Z,149.32
2024-04-16T07:05:13.975Z,150.35
2024-04-16T07:06:14.019Z,154.15
2024-04-16T07:07:14.199Z,156.80
2024-04-16T07:08:14.439Z,154.21
2024-04-16T07:09:14.108Z,150.10
2024-04-16T07:10:14.188Z,152.10
2024-04-16T07:11:14.206Z,153.96
2024-04-16T07:12:14.233Z,152.19
2024-04-16T07:13:15.798Z,155.33
2024-04-16T07:14:14.739Z,156.48
2024-04-16T07:15:14.278Z,160.74
2024-04-16T07:16:14.435Z,159.63
2024-04-16T07:17:14.953Z,161.44
2024-04-16T07:18:14.343Z,163.14
2024-04-16T07:19:14.441Z,161.27
2024-04-16T07:20:14.317Z,164.92
2024-04-16T07:21:14.271Z,166.08
2024-04-16T07:22:14.956Z,167.33
2024-04-16T07:23:14.295Z,167.84
2024-04-16T07:24:14.438Z,170.83
2024-04-16T07:25:14.286Z,170.14
2024-04-16T07:26:14.278Z,172.37
2024-04-16T07:27:14.977Z,171.06
2024-04-16T07:28:14.435Z,170.86
2024-04-16T07:29:14.297Z,170.49
2024-04-16T07:30:14.369Z,170.08
2024-04-16T07:31:18.284Z,167.73
2024-04-16T07:32:14.474Z,166.50
2024-04-16T07:33:14.576Z,158.43
2024-04-16T07:34:15.895Z,157.62
2024-04-16T07:35:14.295Z,155.60
2024-04-16T07:36:14.338Z,153.75
2024-04-16T07:37:14.528Z,146.36
2024-04-16T07:38:14.941Z,142.96
2024-04-16T07:39:17.485Z,136.64
2024-04-16T07:40:14.500Z,130.41
2024-04-16T07:41:14.473Z,126.26
2024-04-16T07:42:14.382Z,116.74
2024-04-16T07:43:15.247Z,117.25
2024-04-16T07:44:14.359Z,116.08
2024-04-16T07:45:14.460Z,113.86
2024-04-16T07:46:14.455Z,108.18
2024-04-16T07:47:14.625Z,105.99
2024-04-16T07:48:14.536Z,106.61
2024-04-16T07:49:14.481Z,109.66
2024-04-16T07:50:14.425Z,108.45
2024-04-16T07:51:14.404Z,105.21
2024-04-16T07:52:14.575Z,107.38
2024-04-16T07:53:14.467Z,108.04
2024-04-16T07:54:15.393Z,108.60
2024-04-16T07:55:14.603Z,109.51
2024-04-16T07:56:17.165Z,106.68
2024-04-16T07:57:15.754Z,106.90
2024-04-16T07:58:14.763Z,106.91
2024-04-16T07:59:14.875Z,107.05
2024-04-16T08:00:14.721Z,108.01
2024-04-16T08:01:18.739Z,109.85
2024-04-16T08:02:15.069Z,106.90
2024-04-16T08:03:14.754Z,107.52
2024-04-16T08:04:14.800Z,106.49
2024-04-16T08:05:14.705Z,106.64
2024-04-16T08:06:14.696Z,105.70
2024-04-16T08:07:14.683Z,102.35
2024-04-16T08:08:18.570Z,100.52
2024-04-16T08:09:15.660Z,100.59
2024-04-16T08:10:14.796Z,100.52
2024-04-16T08:11:14.865Z,99.25
2024-04-16T08:12:14.828Z,100.00
2024-04-16T08:13:15.037Z,97.82
2024-04-16T08:14:15.510Z,94.49
2024-04-16T08:15:14.669Z,90.93
2024-04-16T08:16:15.427Z,91.88
2024-04-16T08:17:14.761Z,90.69
2024-04-16T08:18:17.583Z,83.93
2024-04-16T08:19:16.488Z,84.81
2024-04-16T08:20:16.707Z,84.83
2024-04-16T08:21:15.394Z,84.94
2024-04-16T08:22:14.683Z,85.13
2024-04-16T08:23:15.086Z,85.31
2024-04-16T08:24:15.297Z,82.59
2024-04-16T08:25:14.867Z,84.05
2024-04-16T08:26:16.407Z,82.60
2024-04-16T08:27:14.956Z,79.71
2024-04-16T08:28:14.955Z,78.04
2024-04-16T08:29:14.978Z,74.97
2024-04-16T08:30:15.032Z,68.91
2024-04-16T08:31:15.023Z,64.14
2024-04-16T08:32:15.124Z,55.14
2024-04-16T08:33:15.393Z,49.70
2024-04-16T08:34:15.605Z,47.09
2024-04-16T08:35:15.379Z,52.09
2024-04-16T08:36:15.472Z,50.00
2024-04-16T08:37:15.362Z,50.00
2024-04-16T08:38:15.518Z,53.90
2024-04-16T08:39:15.576Z,53.39
2024-04-16T08:40:15.410Z,50.34
2024-04-16T08:41:15.378Z,48.99
2024-04-16T08:42:15.399Z,49.93
2024-04-16T08:43:15.759Z,50.48
2024-04-16T08:44:15.553Z,53.41
2024-04-16T08:45:15.779Z,54.22
2024-04-16T08:46:15.537Z,51.15
2024-04-16T08:47:15.579Z,57.01
2024-04-16T08:48:15.613Z,57.70
2024-04-16T08:49:16.498Z,66.60
2024-04-16T08:50:15.860Z,75.39
2024-04-16T08:51:21.001Z,81.11
2024-04-16T08:52:15.767Z,81.20
2024-04-16T08:53:16.131Z,82.18
2024-04-16T08:54:17.033Z,83.96
2024-04-16T08:55:15.893Z,89.11
2024-04-16T08:56:15.907Z,98.41
2024-04-16T08:57:15.915Z,106.67
2024-04-16T08:58:16.045Z,112.12
2024-04-16T08:59:15.999Z,114.82
2024-04-16T09:00:16.719Z,117.15
2024-04-16T09:01:16.203Z,120.04
2024-04-16T09:02:16.383Z,123.36
2024-04-16T09:03:16.566Z,123.77
2024-04-16T09:04:16.248Z,116.96
2024-04-16T09:05:16.328Z,115.40
2024-04-16T09:06:16.634Z,119.12
2024-04-16T09:07:16.300Z,114.39
2024-04-16T09:08:17.039Z,111.95
2024-04-16T09:09:16.323Z,107.50
2024-04-16T09:10:16.407Z,115.84
2024-04-16T09:11:16.488Z,122.55
2024-04-16T09:12:16.545Z,128.98
2024-04-16T09:13:16.571Z,126.66
2024-04-16T09:14:16.603Z,125.58
2024-04-16T09:15:16.866Z,124.14
2024-04-16T09:16:16.647Z,130.69
2024-04-16T09:17:17.220Z,132.02
2024-04-16T09:18:16.606Z,133.02
2024-04-16T09:19:16.643Z,126.51
2024-04-16T09:20:16.622Z,131.93
2024-04-16T09:21:16.788Z,132.21
2024-04-16T09:22:20.106Z,128.73
2024-04-16T09:23:17.415Z,130.73
2024-04-16T09:24:16.735Z,134.66
2024-04-16T09:25:16.748Z,131.71
2024-04-16T09:26:16.825Z,128.09
2024-04-16T09:27:17.012Z,132.75
2024-04-16T09:28:19.291Z,133.63
2024-04-16T09:29:16.768Z,133.68
2024-04-16T09:30:16.766Z,134.61
2024-04-16T09:31:17.748Z,133.82
2024-04-16T09:32:16.739Z,129.68
2024-04-16T09:34:19.652Z,127.00
2024-04-16T09:35:16.700Z,127.19
2024-04-16T09:36:16.693Z,128.72
2024-04-16T09:37:17.247Z,133.28
2024-04-16T09:38:17.197Z,138.73
2024-04-16T09:39:16.831Z,148.38
2024-04-16T09:40:16.783Z,152.88
2024-04-16T09:41:16.722Z,154.75
2024-04-16T09:42:16.736Z,157.30
2024-04-16T09:43:17.055Z,157.46
2024-04-16T09:44:16.722Z,158.45
2024-04-16T09:45:16.748Z,157.70
2024-04-16T09:46:17.140Z,159.26
2024-04-16T09:47:16.777Z,162.71
2024-04-16T09:48:16.835Z,162.43
2024-04-16T09:49:17.082Z,159.86
2024-04-16T09:50:27.236Z,161.47
2024-04-16T09:51:18.039Z,161.54
2024-04-16T09:52:16.790Z,161.82
2024-04-16T09:53:17.121Z,161.67
2024-04-16T09:54:17.676Z,160.11
2024-04-16T09:55:17.058Z,161.55
2024-04-16T09:56:16.785Z,161.86
2024-04-16T09:57:16.809Z,161.19
2024-04-16T09:58:16.836Z,159.21
2024-04-16T09:59:16.842Z,157.38
2024-04-16T10:00:17.997Z,160.88
2024-04-16T10:01:17.607Z,159.21
2024-04-16T10:02:16.952Z,157.48
2024-04-16T10:03:17.173Z,158.68
2024-04-16T10:04:18.224Z,156.07
2024-04-16T10:05:17.242Z,156.12
2024-04-16T10:06:17.211Z,156.77
2024-04-16T10:07:17.750Z,153.96
2024-04-16T10:08:17.684Z,152.44
2024-04-16T10:09:17.281Z,150.42
2024-04-16T10:10:17.404Z,151.47
2024-04-16T10:11:24.628Z,153.37
2024-04-16T10:12:18.565Z,154.02
2024-04-16T10:13:17.370Z,152.91
2024-04-16T10:14:17.354Z,154.96
2024-04-16T10:15:17.394Z,156.00
2024-04-16T10:16:17.387Z,158.74
2024-04-16T10:17:17.559Z,161.22
2024-04-16T10:18:17.454Z,162.36
2024-04-16T10:19:17.460Z,163.64
2024-04-16T10:20:17.420Z,163.04
2024-04-16T10:21:17.470Z,165.67
2024-04-16T10:22:17.583Z,168.64
2024-04-16T10:23:17.712Z,170.80
2024-04-16T10:24:18.117Z,174.97
2024-04-16T10:25:19.115Z,176.34
2024-04-16T10:26:18.166Z,178.02
2024-04-16T10:27:17.862Z,176.68
2024-04-16T10:28:17.970Z,175.21
2024-04-16T10:29:17.975Z,178.66
2024-04-16T10:30:17.983Z,179.11
2024-04-16T10:31:18.617Z,181.55
2024-04-16T10:32:18.094Z,178.73
2024-04-16T10:33:18.276Z,180.62
2024-04-16T10:34:18.269Z,180.09
2024-04-16T10:35:18.291Z,180.88
2024-04-16T10:36:18.326Z,179.63
2024-04-16T10:37:18.426Z,182.68
2024-04-16T10:38:18.544Z,184.50
2024-04-16T10:39:18.557Z,186.33
2024-04-16T10:40:18.602Z,184.23
2024-04-16T10:41:18.598Z,190.23
2024-04-16T10:42:18.694Z,189.73
2024-04-16T10:43:20.332Z,188.61
2024-04-16T10:44:19.060Z,189.82
2024-04-16T10:45:18.796Z,189.69
2024-04-16T10:46:18.855Z,189.35
2024-04-16T10:47:18.955Z,193.55
2024-04-16T10:48:18.794Z,193.09
2024-04-16T10:49:19.124Z,193.18
2024-04-16T10:50:19.056Z,195.80
2024-04-16T10:51:18.769Z,195.02
2024-04-16T10:52:18.810Z,192.61
2024-04-16T10:53:18.783Z,190.16
2024-04-16T10:54:18.748Z,193.89
2024-04-16T10:55:19.073Z,194.96
2024-04-16T10:56:18.779Z,194.08
2024-04-16T10:57:18.785Z,193.21
2024-04-16T10:58:18.771Z,198.72
2024-04-16T10:59:18.760Z,198.22
2024-04-16T11:00:18.769Z,198.22
2024-04-16T11:01:18.789Z,197.73
2024-04-16T11:02:19.080Z,199.60
2024-04-16T11:03:18.857Z,196.46
2024-04-16T11:04:19.024Z,198.48
2024-04-16T11:05:19.581Z,198.70
2024-04-16T11:06:19.148Z,198.43
2024-04-16T11:07:19.582Z,195.86
2024-04-16T11:08:18.816Z,197.95
2024-04-16T11:09:18.751Z,197.27
2024-04-16T11:10:18.836Z,194.91
2024-04-16T11:11:18.797Z,193.48
2024-04-16T11:12:18.778Z,193.52
2024-04-16T11:13:18.825Z,190.98
2024-04-16T11:14:18.771Z,190.54
2024-04-16T11:15:18.779Z,190.52
2024-04-16T11:16:19.118Z,190.29
2024-04-16T11:17:18.830Z,194.11
2024-04-16T11:18:18.881Z,190.73
2024-04-16T11:19:18.883Z,191.56
2024-04-16T11:20:18.814Z,192.23
2024-04-16T11:21:18.804Z,192.57
2024-04-16T11:22:18.908Z,197.00
2024-04-16T11:23:18.834Z,193.50
2024-04-16T11:24:18.830Z,194.34
2024-04-16T11:25:18.880Z,194.46
2024-04-16T11:26:18.781Z,194.07
2024-04-16T11:27:18.863Z,194.48
2024-04-16T11:28:19.078Z,193.90
2024-04-16T11:29:18.962Z,192.79
2024-04-16T11:30:19.009Z,193.90
2024-04-16T11:31:19.066Z,193.53
2024-04-16T11:32:19.084Z,194.81
2024-04-16T11:33:23.371Z,192.30
2024-04-16T11:34:20.172Z,192.33
2024-04-16T11:35:19.224Z,192.48
2024-04-16T11:36:19.122Z,192.48
2024-04-16T11:37:19.222Z,192.66
2024-04-16T11:38:19.133Z,194.02
2024-04-16T11:39:19.102Z,194.73
2024-04-16T11:40:19.189Z,190.34
2024-04-16T11:41:19.389Z,186.58
2024-04-16T11:42:19.175Z,189.38
2024-04-16T11:43:19.187Z,187.38
2024-04-16T11:44:19.113Z,185.51
2024-04-16T11:45:19.124Z,186.00
2024-04-16T11:46:19.330Z,183.04
2024-04-16T11:47:19.285Z,180.93
2024-04-16T11:48:19.301Z,181.98
2024-04-16T11:49:19.373Z,178.23
2024-04-16T11:50:19.415Z,176.34
2024-04-16T11:51:19.454Z,174.81
2024-04-16T11:52:19.623Z,176.57
2024-04-16T11:53:19.603Z,169.17
2024-04-16T11:54:19.650Z,169.17
2024-04-16T11:55:19.713Z,169.69
2024-04-16T11:56:19.765Z,166.69
2024-04-16T11:57:19.831Z,165.28
2024-04-16T11:58:19.994Z,162.46
2024-04-16T11:59:19.987Z,163.97
2024-04-16T12:00:20.019Z,163.69
2024-04-16T12:01:20.157Z,161.38
2024-04-16T12:02:20.202Z,159.17
2024-04-16T12:03:20.191Z,143.88
2024-04-16T12:04:20.333Z,124.54
2024-04-16T12:05:20.378Z,119.26
2024-04-16T12:06:20.346Z,101.03
2024-04-16T12:07:20.403Z,91.42
2024-04-16T12:08:20.384Z,80.63
2024-04-16T12:09:20.415Z,80.05
2024-04-16T12:10:20.479Z,74.21
2024-04-16T12:11:20.520Z,80.29
2024-04-16T12:12:20.442Z,84.71
2024-04-16T12:13:20.445Z,87.31
2024-04-16T12:14:20.452Z,85.58
2024-04-16T12:15:20.514Z,91.09
2024-04-16T12:16:20.689Z,95.92
2024-04-16T12:17:20.639Z,90.38
2024-04-16T12:18:20.892Z,91.13
2024-04-16T12:19:20.933Z,90.57
2024-04-16T12:20:20.791Z,84.84
2024-04-16T12:21:20.902Z,84.47
2024-04-16T12:22:20.925Z,85.26
2024-04-16T12:23:21.006Z,83.98
2024-04-16T12:24:21.030Z,90.54
2024-04-16T12:25:21.150Z,102.21
2024-04-16T12:26:21.145Z,111.61
2024-04-16T12:27:21.195Z,115.53
2024-04-16T12:28:21.616Z,121.89
2024-04-16T12:29:21.318Z,124.07
2024-04-16T12:30:21.395Z,129.68
2024-04-16T12:31:21.459Z,137.32
2024-04-16T12:32:21.483Z,140.48
2024-04-16T12:33:21.654Z,146.47
2024-04-16T12:34:21.579Z,147.72
2024-04-16T12:35:21.683Z,149.97
2024-04-16T12:36:21.702Z,155.36
2024-04-16T12:37:21.767Z,156.00
2024-04-16T12:38:21.750Z,157.79